Accueil
METAR-TAF:

METAR-TAF

Aéroports :

Aéroport de Gênes-Christophe Colomb

Gênes, Italie

latitude: 44-25N, longitude: 008-51E, altitude: 2 m

Observation

Le bulletin a été fait il y a 29 minutes, à 21:50 UTC
Vent 4 kt de direction variable
Température 8°C
Humidité 66%
Pression 1010 hPa
Visibilité 10 km ou plus
Quelques nuages à une hauteur de 2500 ft

METAR: LIMJ 202150Z VRB04KT 9999 FEW025 08/02 Q1010

Heure: 23:19 (22:19 UTC)

Prévision

Le bulletin a été fait il y a 5 heures et 19 minutes, à 17:00 UTC
Prévision valable du 20 à 18 UTC au 21 à 18 UTC
Vent 10 kt de nord
Visibilité 10 km ou plus
Nuages épars à une hauteur de 3000 ft
Temporairement
du 21 à 09 UTC au 21 à 16 UTC
pluie

TAF: LIMJ 201700Z 2018/2118 01010KT 9999 SCT030 TEMPO 2109/2116 RA

Observations et prévisions météorologiques de plus de 4000 aéroports (messages METAR et TAF).

Les stations disponibles sont représentées par des disques jaunes et rouges sur la carte.

Passer la souris dessus pour voir le nom de la station.

Cliquer dessus pour voir les observations et prévisions météorologiques.

Pour changer de carte: cliquez sur les boutons verts avec une croix noire pour zoomer, sur le bouton vert avec un tiret pour effectuer un zoom arrière, ou sur les flèches vertes pour les cartes adjacentes.


METAR-TAF: